Capilla del Monte, Argentina
Current Conditions -  °F | °C
As of 7:00 PM on Friday 28 Nov 2014 (Local Time) from SACO Reporting Station
Scattered Clouds Scattered Clouds  
Wind Chill: 81°   Ceiling: Unl
Heat Index: 81°   Visibility: 6mi
Dew Point: 52°   Wind: 16mph
Humidity: 37%   Direction: 50°NE
Pressure: 29.8"   Gusts: NA
Location:  30.85°S, 64.52°W
Report Text: SACO 282200Z 05014KT 9999 SCT030 SCT10027/11 Q1009
Loading
Personal Weather Stations






























Interactive Weather Map New forecast layout! Learn more

10-Day Weather Forecast

Advertisements
Track Severe Weather on mobile